Time;durP1;ratioP1;P1;durP2;ratioP2;P2;SDS_P1;SDS_P2;PMS_P1;PMS_P2;Temp;Humidity;BMP_temperature;BMP_pressure;BME280_temperature;BME280_humidity;BME280_pressure;Samples;Min_cycle;Max_cycle;Signal;HPM_P1;HPM_P2
2022/11/24 00:00:26;;;;;;;17.77;10.23;;;7.20;99.90;;;;;;4975426;28;20113;-79
2022/11/24 00:02:52;;;;;;;23.77;11.38;;;7.20;99.90;;;;;;4975156;28;20046;-79
2022/11/24 00:05:17;;;;;;;22.85;11.80;;;7.20;99.90;;;;;;5005962;28;20034;-79
2022/11/24 00:07:43;;;;;;;21.25;11.27;;;7.20;99.90;;;;;;4975041;28;21684;-79
2022/11/24 00:10:09;;;;;;;20.50;11.57;;;7.20;99.90;;;;;;4974630;28;20042;-79
2022/11/24 00:12:35;;;;;;;19.70;11.05;;;7.10;99.90;;;;;;4976339;28;20038;-79
2022/11/24 00:15:00;;;;;;;23.67;10.40;;;7.00;99.90;;;;;;4975676;28;20027;-79
2022/11/24 00:17:28;;;;;;;22.13;11.07;;;7.00;99.90;;;;;;4961263;28;20064;-79
2022/11/24 00:19:54;;;;;;;19.45;10.13;;;7.00;99.90;;;;;;4974908;28;20653;-80
2022/11/24 00:22:20;;;;;;;21.83;10.15;;;7.00;99.90;;;;;;4981322;28;20034;-80
2022/11/24 00:24:46;;;;;;;21.85;10.90;;;6.90;99.90;;;;;;4994278;28;20104;-79
2022/11/24 00:27:11;;;;;;;20.08;9.93;;;6.90;99.90;;;;;;4978756;28;20500;-79
2022/11/24 00:29:37;;;;;;;23.10;11.10;;;6.90;99.90;;;;;;4975639;28;20113;-80
2022/11/24 00:32:04;;;;;;;20.77;9.95;;;6.90;99.90;;;;;;4971676;28;20036;-79
2022/11/24 00:34:31;;;;;;;18.67;9.95;;;6.90;99.90;;;;;;4978986;28;20046;-79
2022/11/24 00:36:56;;;;;;;22.27;9.32;;;6.90;99.90;;;;;;5011783;28;20049;-80
2022/11/24 00:39:22;;;;;;;16.15;8.75;;;6.80;99.90;;;;;;4985340;28;20532;-80
2022/11/24 00:41:48;;;;;;;21.38;9.55;;;6.80;99.90;;;;;;4979198;28;20548;-79
2022/11/24 00:44:13;;;;;;;20.02;8.35;;;6.70;99.90;;;;;;4978545;28;20039;-78
2022/11/24 00:46:39;;;;;;;21.80;9.07;;;6.70;99.90;;;;;;4977885;28;20390;-79
2022/11/24 00:49:05;;;;;;;19.58;8.57;;;6.70;99.90;;;;;;4981782;28;20149;-79
2022/11/24 00:51:30;;;;;;;19.98;9.70;;;6.70;99.90;;;;;;4985000;28;20133;-79
2022/11/24 00:53:57;;;;;;;22.55;9.05;;;6.70;99.90;;;;;;4983860;28;20065;-79
2022/11/24 00:56:24;;;;;;;22.70;8.60;;;6.80;99.90;;;;;;4978451;28;20443;-79
2022/11/24 00:58:50;;;;;;;23.63;9.20;;;6.80;99.90;;;;;;4962519;28;20500;-79
2022/11/24 01:01:20;;;;;;;21.38;8.77;;;6.80;99.90;;;;;;4978181;28;20054;-79
2022/11/24 01:03:46;;;;;;;19.13;8.57;;;6.70;99.90;;;;;;5010626;28;20038;-79
2022/11/24 01:06:17;;;;;;;21.00;8.63;;;6.70;99.90;;;;;;4981546;28;20072;-79
2022/11/24 01:08:43;;;;;;;18.08;7.53;;;6.70;99.90;;;;;;4981406;28;20049;-79
2022/11/24 01:11:18;;;;;;;23.33;8.07;;;6.70;99.90;;;;;;4980836;28;20050;-79
2022/11/24 01:13:45;;;;;;;19.13;7.85;;;6.70;99.90;;;;;;4995694;28;21843;-79
2022/11/24 01:16:19;;;;;;;19.55;8.45;;;6.70;99.90;;;;;;4975382;28;20039;-79
2022/11/24 01:18:45;;;;;;;19.33;7.88;;;6.60;99.90;;;;;;4958678;28;20043;-79
2022/11/24 01:21:11;;;;;;;17.40;7.55;;;6.60;99.90;;;;;;4960523;28;20066;-79
2022/11/24 01:23:37;;;;;;;18.25;7.60;;;6.60;99.90;;;;;;4978656;28;20503;-79
2022/11/24 01:26:07;;;;;;;23.38;7.57;;;6.60;99.90;;;;;;4978088;28;20050;-79
2022/11/24 01:28:34;;;;;;;21.95;8.63;;;6.50;99.90;;;;;;4995242;28;20408;-79
2022/11/24 01:31:01;;;;;;;16.63;6.57;;;6.60;99.90;;;;;;4962005;28;20116;-79
2022/11/24 01:33:27;;;;;;;24.90;7.53;;;6.50;99.90;;;;;;5008311;28;20084;-79
2022/11/24 01:35:53;;;;;;;28.83;7.30;;;6.50;99.90;;;;;;5007958;28;20520;-79
2022/11/24 01:38:19;;;;;;;19.55;6.65;;;6.50;99.90;;;;;;4976364;28;20042;-79
2022/11/24 01:40:45;;;;;;;17.63;7.05;;;6.50;99.90;;;;;;4982292;28;20062;-79
2022/11/24 01:43:16;;;;;;;19.65;6.38;;;6.50;99.90;;;;;;5010569;28;20523;-78
2022/11/24 01:45:43;;;;;;;20.02;6.32;;;6.50;99.90;;;;;;4977831;28;20385;-79
2022/11/24 01:48:23;;;;;;;27.83;6.75;;;6.60;99.90;;;;;;4961326;28;20030;-79
2022/11/24 01:50:54;;;;;;;25.50;6.25;;;6.60;99.90;;;;;;5009224;28;20495;-79
2022/11/24 01:53:22;;;;;;;20.05;7.45;;;6.60;99.90;;;;;;5011086;28;20056;-79
2022/11/24 01:55:49;;;;;;;18.55;6.00;;;6.60;99.90;;;;;;5009214;28;20038;-79
2022/11/24 01:58:20;;;;;;;18.85;6.13;;;6.70;99.90;;;;;;4976740;28;20401;-79
2022/11/24 02:00:46;;;;;;;20.13;5.93;;;6.70;99.90;;;;;;4961447;28;20038;-80
2022/11/24 02:03:16;;;;;;;24.30;6.30;;;6.70;99.90;;;;;;4977843;28;20061;-79
2022/11/24 02:05:44;;;;;;;18.55;5.35;;;6.70;99.90;;;;;;4997370;28;20133;-80
2022/11/24 02:08:20;;;;;;;20.25;5.75;;;6.80;99.90;;;;;;4976162;28;20046;-80
2022/11/24 02:10:47;;;;;;;20.85;5.70;;;6.80;99.90;;;;;;4977528;28;20072;-79
2022/11/24 02:13:14;;;;;;;20.10;6.38;;;6.80;99.90;;;;;;5010658;28;20520;-79
2022/11/24 02:15:40;;;;;;;18.38;5.82;;;6.80;99.90;;;;;;4977654;28;20053;-79
2022/11/24 02:18:06;;;;;;;21.17;5.15;;;6.80;99.90;;;;;;4977531;28;20046;-80
2022/11/24 02:20:32;;;;;;;19.77;5.18;;;6.80;99.90;;;;;;4984156;28;20049;-79
2022/11/24 02:23:11;;;;;;;16.48;4.65;;;6.90;99.90;;;;;;4977514;28;20089;-79
2022/11/24 02:25:52;;;;;;;20.77;5.13;;;6.90;99.90;;;;;;4976180;28;20038;-80
2022/11/24 02:28:21;;;;;;;22.35;5.07;;;6.80;99.90;;;;;;4976474;28;20042;-79
2022/11/24 02:30:47;;;;;;;18.15;5.25;;;6.80;99.90;;;;;;4983148;28;20073;-79
2022/11/24 02:33:13;;;;;;;16.98;4.28;;;6.70;99.90;;;;;;4977474;28;20104;-79
2022/11/24 02:35:39;;;;;;;15.68;4.68;;;6.80;99.90;;;;;;4984199;28;20050;-80
2022/11/24 02:38:05;;;;;;;16.25;4.55;;;6.70;99.90;;;;;;4976888;28;20049;-79
2022/11/24 02:40:31;;;;;;;20.02;5.03;;;6.60;99.90;;;;;;4976404;28;20100;-80
2022/11/24 02:43:04;;;;;;;18.20;4.68;;;6.60;99.90;;;;;;4976825;28;20050;-80
2022/11/24 02:45:30;;;;;;;13.82;4.57;;;6.50;99.90;;;;;;4960467;28;20180;-79
2022/11/24 02:47:56;;;;;;;16.92;5.28;;;6.50;99.90;;;;;;4977091;28;20097;-80
2022/11/24 02:50:22;;;;;;;18.23;5.00;;;6.50;99.90;;;;;;5008406;28;20046;-79
2022/11/24 02:52:48;;;;;;;18.75;4.28;;;6.50;99.90;;;;;;4977188;28;20385;-80
2022/11/24 02:55:13;;;;;;;20.35;4.68;;;6.40;99.90;;;;;;4977126;28;20181;-80
2022/11/24 02:57:39;;;;;;;18.42;4.90;;;6.40;99.90;;;;;;4976634;28;20097;-79
2022/11/24 03:00:05;;;;;;;13.02;4.30;;;6.40;99.90;;;;;;4976782;28;20046;-79
2022/11/24 03:02:31;;;;;;;14.20;4.57;;;6.40;99.90;;;;;;5009683;28;20038;-79
2022/11/24 03:04:56;;;;;;;18.58;4.45;;;6.40;99.90;;;;;;4983533;28;20050;-79
2022/11/24 03:07:22;;;;;;;14.77;4.30;;;6.40;99.90;;;;;;4976443;28;20539;-80
2022/11/24 03:09:48;;;;;;;13.13;4.28;;;6.40;99.90;;;;;;4979825;28;20126;-79
2022/11/24 03:12:13;;;;;;;17.40;4.53;;;6.40;99.90;;;;;;4976610;28;20038;-79
2022/11/24 03:14:39;;;;;;;14.25;4.57;;;6.40;99.90;;;;;;4976659;28;20046;-79
2022/11/24 03:17:05;;;;;;;23.02;5.03;;;6.40;99.90;;;;;;4978388;28;20037;-79
2022/11/24 03:19:32;;;;;;;17.58;4.72;;;6.40;99.90;;;;;;4978457;28;20046;-80
2022/11/24 03:21:57;;;;;;;22.20;4.85;;;6.40;99.90;;;;;;4961276;28;20039;-79
2022/11/24 03:24:23;;;;;;;20.40;4.20;;;6.40;99.90;;;;;;4976323;28;20145;-80
2022/11/24 03:26:49;;;;;;;20.33;4.97;;;6.50;99.90;;;;;;4976547;28;20125;-79
2022/11/24 03:29:14;;;;;;;25.35;4.85;;;6.40;99.90;;;;;;4960257;28;20086;-80
2022/11/24 03:31:40;;;;;;;21.58;4.82;;;6.40;99.90;;;;;;4976172;28;20042;-80
2022/11/24 03:34:05;;;;;;;21.50;4.28;;;6.50;99.90;;;;;;4976286;28;20065;-79
2022/11/24 03:36:31;;;;;;;14.02;4.60;;;6.50;99.90;;;;;;4975289;28;20073;-79
2022/11/24 03:38:57;;;;;;;16.25;4.25;;;6.50;99.90;;;;;;5008563;28;20102;-79
2022/11/24 03:41:22;;;;;;;15.85;3.95;;;6.50;99.90;;;;;;4975943;28;20038;-79
2022/11/24 03:43:48;;;;;;;18.73;4.50;;;6.60;99.90;;;;;;4978553;28;20496;-79
2022/11/24 03:46:14;;;;;;;21.17;4.18;;;6.60;99.90;;;;;;4978345;28;20042;-79
2022/11/24 03:48:39;;;;;;;15.48;4.00;;;6.60;99.90;;;;;;4975875;28;20056;-79
2022/11/24 03:51:05;;;;;;;15.65;4.03;;;6.60;99.90;;;;;;4983023;28;20133;-79
2022/11/24 03:53:32;;;;;;;19.90;3.97;;;6.60;99.90;;;;;;4975644;28;20129;-79
2022/11/24 03:55:58;;;;;;;15.65;3.60;;;6.60;99.90;;;;;;4975790;28;20042;-79
2022/11/24 03:58:24;;;;;;;17.67;3.92;;;6.60;99.90;;;;;;4975635;28;20416;-79
2022/11/24 04:00:51;;;;;;;19.92;4.13;;;6.60;99.90;;;;;;4982111;28;20038;-80
2022/11/24 04:03:18;;;;;;;18.95;3.72;;;6.60;99.90;;;;;;4956595;28;20041;-79
2022/11/24 04:05:44;;;;;;;19.30;3.22;;;6.50;99.90;;;;;;4975671;28;20042;-79
2022/11/24 04:08:10;;;;;;;20.38;4.63;;;6.60;99.90;;;;;;4974382;28;20077;-79
2022/11/24 04:10:37;;;;;;;15.93;3.40;;;6.60;99.90;;;;;;4975609;28;20047;-79
2022/11/24 04:13:04;;;;;;;18.17;3.40;;;6.60;99.90;;;;;;4959238;28;20046;-80
2022/11/24 04:15:29;;;;;;;16.33;3.08;;;6.60;99.90;;;;;;5006598;28;20508;-79
2022/11/24 04:17:55;;;;;;;16.90;2.92;;;6.60;99.90;;;;;;4980001;28;20039;-80
2022/11/24 04:20:21;;;;;;;17.05;3.83;;;6.50;99.90;;;;;;4975250;28;20057;-80
2022/11/24 04:22:50;;;;;;;21.35;3.65;;;6.60;99.90;;;;;;4975855;28;20034;-79
2022/11/24 04:25:16;;;;;;;19.40;3.55;;;6.70;99.90;;;;;;4973480;28;20062;-79
2022/11/24 04:27:42;;;;;;;18.30;3.13;;;6.60;99.90;;;;;;4975372;28;20396;-80
2022/11/24 04:30:08;;;;;;;20.20;3.20;;;6.60;99.90;;;;;;4990467;28;20049;-80
2022/11/24 04:32:35;;;;;;;23.15;3.65;;;6.70;99.90;;;;;;4975214;28;20042;-80
2022/11/24 04:35:00;;;;;;;17.60;3.05;;;6.70;99.90;;;;;;4974943;28;20534;-79
2022/11/24 04:37:26;;;;;;;18.65;3.47;;;6.70;99.90;;;;;;4975730;28;20146;-79
2022/11/24 04:39:53;;;;;;;14.40;3.08;;;6.70;99.90;;;;;;4975314;28;20030;-79
2022/11/24 04:42:19;;;;;;;14.57;4.05;;;6.70;99.90;;;;;;4975666;28;20038;-79
2022/11/24 04:44:45;;;;;;;17.67;3.17;;;6.70;99.90;;;;;;4973289;28;20101;-79
2022/11/24 04:47:22;;;;;;;13.23;3.75;;;6.60;99.90;;;;;;4959022;28;20050;-80
2022/11/24 04:49:48;;;;;;;15.07;3.47;;;6.70;99.90;;;;;;4975196;28;20042;-79
2022/11/24 04:52:21;;;;;;;16.33;3.35;;;6.60;99.90;;;;;;4976660;28;20042;-79
2022/11/24 04:54:47;;;;;;;15.30;3.22;;;6.60;99.90;;;;;;4975697;28;20512;-79
2022/11/24 04:57:24;;;;;;;19.27;3.83;;;6.60;99.90;;;;;;4974345;28;20848;-79
2022/11/24 04:59:50;;;;;;;14.90;3.33;;;6.60;99.90;;;;;;4975101;28;20042;-79
2022/11/24 05:02:16;;;;;;;17.10;3.08;;;6.60;99.90;;;;;;4975483;28;20062;-79
2022/11/24 05:04:41;;;;;;;22.05;3.38;;;6.60;99.90;;;;;;5007699;28;20136;-79
2022/11/24 05:07:10;;;;;;;18.77;3.72;;;6.60;99.90;;;;;;4977056;28;20049;-80
2022/11/24 05:10:33;;;;;;;20.05;3.38;;;6.60;99.90;;;;;;5009994;28;20046;-80
2022/11/24 05:12:21;;;;;;;16.65;3.20;;;6.60;99.90;;;;;;4978076;28;20120;-80
2022/11/24 05:14:46;;;;;;;14.20;3.08;;;6.60;99.90;;;;;;4978763;28;20417;-79
2022/11/24 05:17:12;;;;;;;19.02;3.10;;;6.60;99.90;;;;;;4962501;28;20053;-79
2022/11/24 05:19:37;;;;;;;13.95;3.28;;;6.60;99.90;;;;;;4978277;28;20068;-79
2022/11/24 05:22:03;;;;;;;14.45;3.53;;;6.60;99.90;;;;;;4978350;28;20045;-80
2022/11/24 05:24:28;;;;;;;14.35;3.03;;;6.60;99.90;;;;;;4982833;28;20048;-79
2022/11/24 05:26:54;;;;;;;13.60;3.33;;;6.60;99.90;;;;;;4978288;28;20045;-79
2022/11/24 05:29:19;;;;;;;16.10;3.10;;;6.50;99.90;;;;;;4978407;28;20470;-79
2022/11/24 05:31:45;;;;;;;14.75;3.28;;;6.60;99.90;;;;;;4978193;28;20080;-79
2022/11/24 05:34:12;;;;;;;18.25;3.40;;;6.50;99.90;;;;;;4960929;28;20050;-80
2022/11/24 05:36:53;;;;;;;18.13;4.00;;;6.50;99.90;;;;;;4977769;28;20046;-80
2022/11/24 05:39:22;;;;;;;15.32;2.97;;;6.40;99.90;;;;;;4978259;28;20084;-79
2022/11/24 05:41:47;;;;;;;11.13;2.70;;;6.40;99.90;;;;;;4978165;28;20064;-79
2022/11/24 05:44:13;;;;;;;11.68;2.80;;;6.30;99.90;;;;;;4978048;28;20045;-80
2022/11/24 05:46:38;;;;;;;16.38;3.08;;;6.40;99.90;;;;;;4976797;28;20045;-79
2022/11/24 05:49:04;;;;;;;14.05;3.20;;;6.30;99.90;;;;;;4977841;28;20069;-79
2022/11/24 05:51:30;;;;;;;13.65;3.10;;;6.30;99.90;;;;;;4977930;28;20053;-79
2022/11/24 05:53:55;;;;;;;11.93;2.55;;;6.20;99.90;;;;;;4977931;28;20050;-79
2022/11/24 05:56:21;;;;;;;22.20;3.53;;;6.20;99.90;;;;;;4977108;28;20046;-80
2022/11/24 05:58:46;;;;;;;17.35;3.58;;;6.20;99.90;;;;;;4977527;28;20043;-79
2022/11/24 06:01:12;;;;;;;15.90;2.97;;;6.20;99.90;;;;;;4976793;28;20042;-79
2022/11/24 06:03:37;;;;;;;14.38;3.25;;;6.10;99.90;;;;;;4976584;28;20455;-79
2022/11/24 06:06:03;;;;;;;12.27;3.35;;;6.10;99.90;;;;;;5008791;28;20038;-80
2022/11/24 06:08:28;;;;;;;10.27;2.75;;;6.10;99.90;;;;;;4977376;28;20092;-80
2022/11/24 06:11:15;;;;;;;13.75;2.70;;;6.10;99.90;;;;;;4977618;28;20042;-79
2022/11/24 06:13:41;;;;;;;9.75;2.75;;;6.10;99.90;;;;;;4977517;28;20042;-79
2022/11/24 06:16:07;;;;;;;13.43;3.40;;;6.10;99.90;;;;;;4993982;28;20039;-79
2022/11/24 06:18:32;;;;;;;19.83;3.15;;;6.00;99.90;;;;;;4976306;28;20070;-79
2022/11/24 06:21:00;;;;;;;13.90;3.00;;;6.00;99.90;;;;;;4976283;28;20090;-79
2022/11/24 06:23:26;;;;;;;14.70;3.25;;;6.00;99.90;;;;;;5010229;28;20113;-79
2022/11/24 06:25:51;;;;;;;15.20;3.75;;;6.00;99.90;;;;;;4976746;28;20173;-80
2022/11/24 06:28:17;;;;;;;15.75;3.40;;;6.00;99.90;;;;;;4991756;28;20108;-80
2022/11/24 06:30:42;;;;;;;15.13;3.50;;;6.00;99.90;;;;;;4974999;28;20038;-80
2022/11/24 06:33:08;;;;;;;12.95;2.72;;;6.00;99.90;;;;;;4976057;28;20048;-80
2022/11/24 06:35:33;;;;;;;19.40;3.55;;;6.00;99.90;;;;;;4977324;28;20048;-80
2022/11/24 06:37:59;;;;;;;16.00;3.28;;;6.00;99.90;;;;;;4974131;28;20399;-80
2022/11/24 06:40:24;;;;;;;15.55;3.20;;;6.00;99.90;;;;;;4977072;28;20049;-80
2022/11/24 06:42:51;;;;;;;15.38;3.25;;;6.00;99.90;;;;;;4978135;28;20048;-80
2022/11/24 06:45:16;;;;;;;14.75;3.30;;;5.90;99.90;;;;;;4975767;28;20483;-80
2022/11/24 06:47:42;;;;;;;14.65;3.00;;;6.00;99.90;;;;;;4975020;28;20091;-80
2022/11/24 06:50:09;;;;;;;10.85;2.40;;;5.90;99.90;;;;;;4977064;28;20082;-80
2022/11/24 06:52:34;;;;;;;10.55;2.55;;;5.80;99.90;;;;;;4961204;28;20090;-80
2022/11/24 06:55:00;;;;;;;11.60;2.65;;;5.90;99.90;;;;;;4975811;28;20038;-80
2022/11/24 06:57:29;;;;;;;11.10;2.80;;;5.80;99.90;;;;;;4979129;28;20049;-79
2022/11/24 06:59:56;;;;;;;15.95;2.80;;;5.80;99.90;;;;;;4978385;28;20034;-80
2022/11/24 07:02:21;;;;;;;13.80;3.10;;;5.80;99.90;;;;;;4976842;28;20065;-80
2022/11/24 07:04:47;;;;;;;13.80;3.22;;;5.80;99.90;;;;;;4976450;28;20456;-80
2022/11/24 07:07:12;;;;;;;10.70;2.50;;;5.80;99.90;;;;;;4978775;28;20136;-80
2022/11/24 07:09:38;;;;;;;14.10;3.10;;;5.70;99.90;;;;;;4974792;28;20125;-80
2022/11/24 07:12:04;;;;;;;16.80;3.40;;;5.80;99.90;;;;;;4988985;28;20073;-80
2022/11/24 07:14:30;;;;;;;17.05;2.97;;;5.80;99.90;;;;;;4992215;28;20121;-80
2022/11/24 07:16:56;;;;;;;12.68;2.90;;;5.80;99.90;;;;;;4976407;28;20181;-80
2022/11/24 07:19:21;;;;;;;17.90;3.08;;;5.80;99.90;;;;;;4975643;28;20091;-80
2022/11/24 07:21:47;;;;;;;12.80;3.03;;;5.70;99.90;;;;;;4976057;28;20041;-80
2022/11/24 07:24:12;;;;;;;12.73;2.63;;;5.80;99.90;;;;;;4976057;28;20042;-80
2022/11/24 07:26:38;;;;;;;17.00;3.38;;;5.80;99.90;;;;;;4994018;28;20050;-80
2022/11/24 07:29:04;;;;;;;12.32;3.50;;;5.80;99.90;;;;;;4973077;28;20042;-79
2022/11/24 07:31:30;;;;;;;13.30;3.13;;;5.70;99.90;;;;;;4976695;28;20050;-79
2022/11/24 07:33:55;;;;;;;16.33;3.40;;;5.80;99.90;;;;;;4975813;28;20074;-79
2022/11/24 07:36:21;;;;;;;17.13;3.38;;;5.80;99.90;;;;;;4977573;28;20125;-79
2022/11/24 07:38:47;;;;;;;9.25;3.05;;;5.70;99.90;;;;;;4975694;28;20069;-79
2022/11/24 07:41:15;;;;;;;14.70;3.40;;;5.70;99.90;;;;;;5009231;28;20034;-79
2022/11/24 07:43:40;;;;;;;19.90;4.05;;;5.70;99.90;;;;;;4974922;28;20042;-79
2022/11/24 07:46:09;;;;;;;17.42;3.55;;;5.80;99.90;;;;;;4975881;28;20130;-79
2022/11/24 07:48:35;;;;;;;13.73;3.83;;;5.80;99.90;;;;;;4975560;28;20447;-79
2022/11/24 07:51:01;;;;;;;14.75;3.40;;;5.80;99.90;;;;;;4976543;28;20120;-79
2022/11/24 07:53:27;;;;;;;12.82;3.22;;;5.80;99.90;;;;;;5009464;28;20078;-79
2022/11/24 07:55:59;;;;;;;18.48;4.45;;;5.80;99.90;;;;;;4975937;28;20042;-80
2022/11/24 07:58:29;;;;;;;14.13;3.47;;;5.80;99.90;;;;;;4974446;28;20042;-79
2022/11/24 08:00:55;;;;;;;19.52;3.85;;;5.80;99.90;;;;;;4977865;28;20041;-79
2022/11/24 08:03:21;;;;;;;17.67;4.13;;;5.80;99.90;;;;;;4975864;28;20035;-79
2022/11/24 08:05:57;;;;;;;15.13;3.53;;;5.80;99.90;;;;;;4974363;28;20039;-79
2022/11/24 08:08:23;;;;;;;19.23;4.30;;;5.90;99.90;;;;;;5006720;28;20057;-79
2022/11/24 08:10:49;;;;;;;13.52;3.50;;;5.90;99.90;;;;;;4975494;28;20094;-80
2022/11/24 08:13:15;;;;;;;24.17;4.35;;;5.90;99.90;;;;;;4976064;28;20516;-79
2022/11/24 08:15:41;;;;;;;16.00;3.63;;;5.90;99.90;;;;;;5007863;28;20053;-79
2022/11/24 08:18:06;;;;;;;14.05;3.80;;;5.90;99.90;;;;;;5007983;28;20041;-79
2022/11/24 08:20:32;;;;;;;11.90;4.20;;;6.00;99.90;;;;;;4975658;28;20042;-79
2022/11/24 08:22:58;;;;;;;12.02;3.92;;;6.00;99.90;;;;;;4974978;28;20038;-80
2022/11/24 08:25:31;;;;;;;13.65;3.88;;;6.00;99.90;;;;;;4974728;28;20042;-79
2022/11/24 08:28:01;;;;;;;16.10;3.72;;;6.00;99.90;;;;;;4971411;28;20042;-79
2022/11/24 08:30:27;;;;;;;16.35;4.82;;;6.10;99.90;;;;;;5005382;28;20448;-80
2022/11/24 08:32:53;;;;;;;15.00;4.20;;;6.20;99.90;;;;;;4972759;28;20035;-80
2022/11/24 08:35:19;;;;;;;17.42;4.63;;;6.20;99.90;;;;;;4982479;28;20101;-80
2022/11/24 08:37:45;;;;;;;15.27;4.28;;;6.20;99.90;;;;;;4974858;28;20057;-80
2022/11/24 08:40:11;;;;;;;12.50;4.68;;;6.20;99.90;;;;;;4983032;28;20046;-79
2022/11/24 08:42:36;;;;;;;14.32;4.40;;;6.30;99.90;;;;;;4977449;28;20045;-79
2022/11/24 08:45:03;;;;;;;13.75;4.57;;;6.40;99.90;;;;;;4979149;28;20395;-79
2022/11/24 08:47:28;;;;;;;21.83;4.85;;;6.40;99.90;;;;;;4979108;28;20053;-79
2022/11/24 08:49:54;;;;;;;14.65;4.30;;;6.50;99.90;;;;;;4980864;28;20038;-79
2022/11/24 08:52:19;;;;;;;20.02;5.03;;;6.60;99.90;;;;;;4978933;28;20042;-80
2022/11/24 08:54:45;;;;;;;16.00;4.30;;;6.70;99.90;;;;;;4977074;28;20412;-79
2022/11/24 08:57:12;;;;;;;19.35;4.72;;;6.80;99.90;;;;;;4978711;28;20042;-79
2022/11/24 08:59:38;;;;;;;17.15;4.72;;;6.90;99.90;;;;;;4977541;28;20046;-79
2022/11/24 09:02:03;;;;;;;14.00;5.13;;;7.00;99.90;;;;;;5010099;28;20492;-79
2022/11/24 09:04:29;;;;;;;15.68;4.50;;;7.20;99.90;;;;;;4984233;28;20404;-79
2022/11/24 09:06:55;;;;;;;12.32;4.45;;;7.20;99.90;;;;;;4983115;28;20046;-79
2022/11/24 09:09:20;;;;;;;16.60;5.50;;;7.20;99.90;;;;;;4984307;28;20117;-79
2022/11/24 09:11:46;;;;;;;13.25;4.75;;;7.20;99.90;;;;;;4977663;28;20040;-79
2022/11/24 09:14:11;;;;;;;16.13;4.57;;;7.30;99.90;;;;;;4993897;28;20038;-79
2022/11/24 09:16:37;;;;;;;11.90;4.53;;;7.30;99.90;;;;;;4978353;28;20046;-80
2022/11/24 09:19:04;;;;;;;11.02;4.25;;;7.30;99.90;;;;;;4983137;28;20411;-79
2022/11/24 09:21:33;;;;;;;15.07;4.80;;;7.40;99.90;;;;;;4976486;28;20049;-79
2022/11/24 09:23:59;;;;;;;12.05;4.13;;;7.30;99.90;;;;;;4986862;28;20049;-79
2022/11/24 09:26:27;;;;;;;12.18;4.13;;;7.30;99.90;;;;;;4978421;28;20046;-79
2022/11/24 09:28:54;;;;;;;11.50;4.50;;;7.30;99.90;;;;;;4972859;28;20042;-79
2022/11/24 09:31:21;;;;;;;11.63;4.18;;;7.30;99.90;;;;;;4957759;28;20773;-79
2022/11/24 09:33:47;;;;;;;13.80;4.90;;;7.40;99.90;;;;;;5005848;28;20096;-79
2022/11/24 09:36:13;;;;;;;13.82;4.45;;;7.50;99.90;;;;;;4978341;28;20035;-79
2022/11/24 09:38:39;;;;;;;9.32;3.85;;;7.50;99.90;;;;;;4976000;28;20420;-79
2022/11/24 09:41:17;;;;;;;11.98;3.92;;;7.60;99.90;;;;;;4977780;28;20030;-79
2022/11/24 09:43:55;;;;;;;9.20;3.40;;;7.70;99.90;;;;;;4975692;28;20046;-79
2022/11/24 09:46:46;;;;;;;10.90;3.30;;;7.80;99.90;;;;;;4978597;28;20145;-79
2022/11/24 09:49:21;;;;;;;8.45;3.35;;;7.90;99.90;;;;;;4975786;28;20048;-79
2022/11/24 09:51:51;;;;;;;8.32;3.08;;;7.90;99.90;;;;;;4977226;28;20400;-79
2022/11/24 09:54:27;;;;;;;8.45;3.10;;;8.00;99.90;;;;;;4976442;28;20161;-79
2022/11/24 09:56:55;;;;;;;9.73;3.15;;;8.00;99.90;;;;;;4992138;28;20061;-79
2022/11/24 09:59:23;;;;;;;9.85;3.45;;;8.10;99.90;;;;;;4973918;28;20121;-79
2022/11/24 10:01:50;;;;;;;10.40;2.90;;;8.10;99.90;;;;;;5007864;28;20042;-79
2022/11/24 10:04:17;;;;;;;11.18;2.97;;;8.20;99.90;;;;;;5006705;28;20128;-79
2022/11/24 10:06:54;;;;;;;9.15;2.90;;;8.20;99.90;;;;;;4977214;28;20042;-79
2022/11/24 10:09:52;;;;;;;9.40;2.80;;;8.20;99.90;;;;;;4974864;28;20057;-79
2022/11/24 10:12:38;;;;;;;9.18;2.83;;;8.30;99.90;;;;;;4959647;28;20428;-79
2022/11/24 10:15:21;;;;;;;9.85;2.90;;;8.30;99.90;;;;;;5000853;28;20046;-79
2022/11/24 10:18:05;;;;;;;11.15;2.58;;;8.40;99.90;;;;;;4976951;28;20053;-79
2022/11/24 10:20:52;;;;;;;7.13;2.85;;;8.40;99.90;;;;;;4975142;28;20089;-79
2022/11/24 10:23:26;;;;;;;8.15;2.70;;;8.50;99.90;;;;;;4976293;28;20038;-79
2022/11/24 10:25:59;;;;;;;6.82;2.38;;;8.50;99.90;;;;;;4977197;28;20451;-79
2022/11/24 10:28:57;;;;;;;7.82;2.78;;;8.60;99.90;;;;;;5009056;28;20385;-79
2022/11/24 10:31:31;;;;;;;6.40;2.63;;;8.50;99.90;;;;;;4953494;28;20129;-79
2022/11/24 10:34:15;;;;;;;8.10;2.30;;;8.60;99.90;;;;;;5005303;28;20045;-79
2022/11/24 10:37:00;;;;;;;;;;;8.70;99.90;;;;;;4974617;28;20481;-79
2022/11/24 10:39:33;;;;;;;7.03;2.10;;;8.60;99.90;;;;;;4974920;28;19964;-79
2022/11/24 10:42:14;;;;;;;5.50;2.17;;;8.60;99.90;;;;;;4975591;28;20038;-78
2022/11/24 10:44:41;;;;;;;3.88;2.10;;;8.50;99.90;;;;;;4966355;28;20066;-79
2022/11/24 10:47:18;;;;;;;6.95;3.17;;;8.50;99.90;;;;;;4985366;28;20042;-79
2022/11/24 10:49:54;;;;;;;5.70;2.13;;;8.50;99.90;;;;;;4980478;28;20076;-79
2022/11/24 10:52:22;;;;;;;5.20;2.30;;;8.40;99.90;;;;;;4959886;28;20038;-79
2022/11/24 10:54:59;;;;;;;7.80;2.42;;;8.40;99.90;;;;;;4976360;28;20042;-79
2022/11/24 10:57:33;;;;;;;7.30;2.42;;;8.50;99.90;;;;;;5004945;28;20531;-78
2022/11/24 11:00:00;;;;;;;5.90;2.05;;;8.50;99.90;;;;;;4971625;28;20052;-79
2022/11/24 11:02:32;;;;;;;8.52;2.17;;;8.60;99.90;;;;;;4974722;28;20038;-79
2022/11/24 11:05:18;;;;;;;5.82;2.30;;;8.70;99.90;;;;;;4975965;28;20039;-79
2022/11/24 11:07:43;;;;;;;5.63;2.22;;;8.80;99.90;;;;;;4961530;28;20099;-79
2022/11/24 11:10:21;;;;;;;5.95;2.53;;;8.90;99.90;;;;;;4978335;28;20038;-79
2022/11/24 11:12:47;;;;;;;6.70;2.28;;;8.90;99.90;;;;;;4972991;28;20420;-79
2022/11/24 11:15:25;;;;;;;7.65;2.63;;;9.00;99.90;;;;;;5007915;28;20042;-79
2022/11/24 11:17:56;;;;;;;10.80;3.15;;;9.10;99.90;;;;;;4978343;28;20042;-79
2022/11/24 11:20:30;;;;;;;8.73;3.67;;;9.10;99.90;;;;;;4980526;28;20388;-79
2022/11/24 11:23:00;;;;;;;8.18;2.67;;;9.20;99.90;;;;;;4974927;28;20061;-79
2022/11/24 11:25:31;;;;;;;9.55;3.35;;;9.30;99.90;;;;;;4974800;28;20061;-79
2022/11/24 11:28:28;;;;;;;7.80;2.70;;;9.30;99.90;;;;;;4977486;28;20042;-79
2022/11/24 11:31:05;;;;;;;8.77;3.60;;;9.40;99.90;;;;;;4985079;28;20039;-80
2022/11/24 11:33:35;;;;;;;8.38;2.80;;;9.40;99.90;;;;;;4981826;28;20688;-79
2022/11/24 11:36:07;;;;;;;6.47;2.92;;;9.50;99.90;;;;;;4974251;28;20050;-79
2022/11/24 11:38:37;;;;;;;6.93;2.92;;;9.60;99.90;;;;;;4974897;28;20073;-79
2022/11/24 11:41:05;;;;;;;10.32;3.03;;;9.70;99.90;;;;;;4958811;28;20038;-79
2022/11/24 11:43:35;;;;;;;7.97;2.70;;;9.80;99.90;;;;;;4956048;28;20047;-79
2022/11/24 11:46:06;;;;;;;11.00;3.20;;;9.80;99.90;;;;;;4975991;28;20516;-79
2022/11/24 11:48:34;;;;;;;8.63;2.90;;;9.90;99.90;;;;;;4973279;28;20416;-80
2022/11/24 11:51:17;;;;;;;5.97;2.72;;;10.00;99.90;;;;;;4995186;28;20412;-79
2022/11/24 11:54:03;;;;;;;7.93;2.70;;;10.10;99.90;;;;;;4972957;28;20038;-79
2022/11/24 11:56:33;;;;;;;10.52;3.42;;;10.20;99.90;;;;;;4977490;28;20114;-80
2022/11/24 11:59:05;;;;;;;9.65;3.33;;;10.20;99.90;;;;;;4986151;28;20047;-77
2022/11/24 12:01:59;;;;;;;9.60;3.25;;;10.20;99.90;;;;;;4973014;28;20042;-78
2022/11/24 12:04:43;;;;;;;7.05;4.07;;;10.30;99.90;;;;;;4972972;28;20046;-77
2022/11/24 12:07:17;;;;;;;10.02;3.20;;;10.40;99.90;;;;;;4972242;28;20053;-80
2022/11/24 12:10:05;;;;;;;8.70;2.88;;;10.40;99.90;;;;;;4991159;28;20066;-80
2022/11/24 12:12:49;;;;;;;13.07;2.88;;;10.50;99.90;;;;;;4986472;28;20570;-80
2022/11/24 12:15:43;;;;;;;10.45;3.28;;;10.60;99.90;;;;;;5006551;28;20041;-79
2022/11/24 12:18:29;;;;;;;12.15;3.80;;;10.70;99.90;;;;;;4965709;28;20064;-80
2022/11/24 12:21:33;;;;;;;12.40;4.20;;;10.80;99.90;;;;;;4982788;28;20039;-80
2022/11/24 12:24:14;;;;;;;7.90;3.80;;;10.80;99.90;;;;;;4987948;28;20038;-80
2022/11/24 12:26:44;;;;;;;9.73;2.80;;;10.90;99.90;;;;;;4979778;28;20046;-80
2022/11/24 12:29:52;;;;;;;8.57;2.60;;;11.00;99.90;;;;;;4994493;28;20046;-80
2022/11/24 12:32:27;;;;;;;8.55;2.65;;;11.10;99.90;;;;;;4980190;28;20046;-81
2022/11/24 12:35:21;;;;;;;9.77;2.05;;;11.10;99.90;;;;;;4978866;28;20109;-80
2022/11/24 12:38:07;;;;;;;9.02;2.60;;;11.10;99.90;;;;;;4993453;28;20045;-80
2022/11/24 12:41:04;;;;;;;8.90;2.67;;;11.10;99.90;;;;;;4978774;28;20050;-80
2022/11/24 12:43:34;;;;;;;8.60;2.33;;;11.20;99.90;;;;;;4979403;28;20046;-77
2022/11/24 12:46:18;;;;;;;7.35;1.80;;;11.30;99.90;;;;;;4963717;28;20084;-80
2022/11/24 12:48:56;;;;;;;10.02;3.35;;;11.20;99.90;;;;;;4979956;28;20038;-80
2022/11/24 12:51:30;;;;;;;8.70;1.98;;;11.30;99.90;;;;;;4979495;28;20061;-80
2022/11/24 12:53:57;;;;;;;9.98;2.45;;;11.30;99.90;;;;;;5011570;28;20496;-81
2022/11/24 12:56:42;;;;;;;10.10;1.92;;;11.30;99.90;;;;;;5011903;28;20042;-80
2022/11/24 12:59:30;;;;;;;9.75;2.13;;;11.30;99.90;;;;;;5011008;28;20034;-80